Time;durP1;ratioP1;P1;durP2;ratioP2;P2;SDS_P1;SDS_P2;PMS_P1;PMS_P2;Temp;Humidity;BMP_temperature;BMP_pressure;BME280_temperature;BME280_humidity;BME280_pressure;Samples;Min_cycle;Max_cycle;Signal;HPM_P1;HPM_P2
2021/08/08 00:01:55;;;;;;;4.47;0.82;;;;;;;-148.56;100.00;61375.16;5053653;28;20036;-58
2021/08/08 00:05:19;;;;;;;6.10;1.20;;;;;;;-148.56;100.00;61375.16;5058046;28;20508;-56
2021/08/08 00:08:43;;;;;;;3.05;0.80;;;;;;;-148.56;100.00;61375.16;5045658;28;20041;-58
2021/08/08 00:12:07;;;;;;;2.30;0.80;;;;;;;-148.56;100.00;61375.16;5055674;28;20058;-58
2021/08/08 00:15:31;;;;;;;6.88;1.10;;;;;;;-148.56;100.00;61375.16;5053839;28;20052;-56
2021/08/08 00:18:55;;;;;;;4.88;0.93;;;;;;;-148.56;100.00;61375.16;5033877;28;20400;-58
2021/08/08 00:22:19;;;;;;;3.70;1.00;;;;;;;-148.56;100.00;61375.16;5041803;28;20283;-59
2021/08/08 00:25:43;;;;;;;1.08;0.43;;;;;;;-148.56;100.00;61375.16;5055839;28;20535;-59
2021/08/08 00:29:07;;;;;;;2.58;0.63;;;;;;;-148.56;100.00;61375.16;5016802;28;20032;-59
2021/08/08 00:32:31;;;;;;;4.90;0.95;;;;;;;-148.56;100.00;61375.16;5051379;28;20032;-57
2021/08/08 00:35:54;;;;;;;3.50;0.88;;;;;;;-148.56;100.00;61375.16;5054648;28;20590;-59
2021/08/08 00:39:20;;;;;;;5.88;0.98;;;;;;;-148.56;100.00;61375.16;5051843;28;20419;-59
2021/08/08 00:42:47;;;;;;;6.90;0.93;;;;;;;-148.56;100.00;61375.16;5050227;28;20074;-58
2021/08/08 00:46:11;;;;;;;3.90;0.70;;;;;;;-148.56;100.00;61375.16;5042822;28;20032;-57
2021/08/08 00:49:35;;;;;;;2.92;0.90;;;;;;;-148.56;100.00;61375.16;5047119;28;20116;-58
2021/08/08 00:52:59;;;;;;;1.98;0.63;;;;;;;-148.56;100.00;61375.16;5043878;28;20028;-56
2021/08/08 00:56:23;;;;;;;4.10;0.90;;;;;;;-148.56;100.00;61375.16;5052239;28;20366;-58
2021/08/08 00:59:47;;;;;;;2.95;0.55;;;;;;;-148.56;100.00;61375.16;5041765;28;20033;-56
2021/08/08 01:03:12;;;;;;;2.65;0.85;;;;;;;-148.56;100.00;61375.16;5047648;28;20032;-58
2021/08/08 01:06:51;;;;;;;2.30;0.95;;;;;;;-148.56;100.00;61375.16;5030102;28;20036;-59
2021/08/08 01:10:15;;;;;;;4.22;1.00;;;;;;;-148.56;100.00;61375.16;5045957;28;20133;-57
2021/08/08 01:13:39;;;;;;;2.65;0.52;;;;;;;-148.56;100.00;61375.16;5035109;28;20044;-57
2021/08/08 01:17:04;;;;;;;3.88;0.90;;;;;;;-148.56;100.00;61375.16;5037072;28;20456;-56
2021/08/08 01:20:30;;;;;;;4.32;0.70;;;;;;;-148.56;100.00;61375.16;5054596;28;20062;-58
2021/08/08 01:23:55;;;;;;;5.40;0.80;;;;;;;-148.56;100.00;61375.16;5029460;28;20500;-58
2021/08/08 01:27:19;;;;;;;3.92;0.73;;;;;;;-148.56;100.00;61375.16;5038064;28;20328;-57
2021/08/08 01:30:43;;;;;;;2.38;0.88;;;;;;;-148.56;100.00;61375.16;5034722;28;20044;-57
2021/08/08 01:34:07;;;;;;;2.60;0.60;;;;;;;-148.56;100.00;61375.16;5046324;28;20032;-58
2021/08/08 01:37:31;;;;;;;1.52;0.52;;;;;;;-148.56;100.00;61375.16;5047475;28;20020;-58
2021/08/08 01:41:05;;;;;;;3.10;0.63;;;;;;;-148.56;100.00;61375.16;5041124;28;20503;-58
2021/08/08 01:44:31;;;;;;;3.05;0.60;;;;;;;-148.56;100.00;61375.16;5028513;28;20594;-59
2021/08/08 01:47:56;;;;;;;0.82;0.55;;;;;;;-148.56;100.00;61375.16;5056599;28;20110;-56
2021/08/08 01:51:20;;;;;;;3.15;0.60;;;;;;;-148.56;100.00;61375.16;5051726;28;20561;-56
2021/08/08 01:54:44;;;;;;;4.63;0.80;;;;;;;-148.56;100.00;61375.16;5025101;28;20163;-57
2021/08/08 01:58:09;;;;;;;4.15;0.82;;;;;;;-148.56;100.00;61375.16;5056331;28;20024;-59
2021/08/08 02:01:33;;;;;;;2.35;0.55;;;;;;;-148.56;100.00;61375.16;5019595;28;20049;-57
2021/08/08 02:04:57;;;;;;;4.03;0.65;;;;;;;-148.56;100.00;61375.16;5045250;28;20032;-58
2021/08/08 02:08:21;;;;;;;2.38;0.60;;;;;;;-148.56;100.00;61375.16;5049506;28;20075;-58
2021/08/08 02:11:45;;;;;;;4.35;0.70;;;;;;;-148.56;100.00;61375.16;5025432;28;20735;-57
2021/08/08 02:15:09;;;;;;;3.90;0.80;;;;;;;-148.56;100.00;61375.16;5029301;28;20577;-59
2021/08/08 02:18:36;;;;;;;3.17;0.60;;;;;;;-148.56;100.00;61375.16;5045673;28;20036;-59
2021/08/08 02:22:00;;;;;;;3.25;0.80;;;;;;;-148.56;100.00;61375.16;5047608;28;20100;-58
2021/08/08 02:25:24;;;;;;;2.83;0.65;;;;;;;-148.56;100.00;61375.16;5053158;28;20067;-59
2021/08/08 02:28:48;;;;;;;1.83;0.68;;;;;;;-148.56;100.00;61375.16;5040310;28;20690;-56
2021/08/08 02:32:15;;;;;;;1.55;0.63;;;;;;;-148.56;100.00;61375.16;5054620;28;20105;-57
2021/08/08 02:35:39;;;;;;;2.97;0.50;;;;;;;-148.56;100.00;61375.16;5043080;28;20032;-57
2021/08/08 02:39:03;;;;;;;2.70;0.47;;;;;;;-148.56;100.00;61375.16;5043359;28;20135;-58
2021/08/08 02:42:27;;;;;;;2.97;0.45;;;;;;;-148.56;100.00;61375.16;5034232;28;20106;-60
2021/08/08 02:45:51;;;;;;;1.55;0.40;;;;;;;-148.56;100.00;61375.16;5053142;28;20495;-58
2021/08/08 02:49:15;;;;;;;1.08;0.43;;;;;;;-148.56;100.00;61375.16;5054597;28;20029;-58
2021/08/08 02:51:43;;;;;;;2.38;0.45;;;;;;;28.26;38.76;95829.31;5027462;28;20474;-58
2021/08/08 02:54:11;;;;;;;0.95;0.50;;;;;;;28.12;38.67;96097.22;5052130;28;20066;-59
2021/08/08 02:57:35;;;;;;;3.03;0.70;;;;;;;-148.56;100.00;61375.16;5052870;28;20446;-60
2021/08/08 03:00:00;;;;;;;1.92;0.68;;;;;;;28.14;38.59;96115.53;5041356;28;20029;-59
2021/08/08 03:02:25;;;;;;;1.33;0.57;;;;;;;28.11;38.74;96116.59;5049999;28;20036;-58
2021/08/08 03:04:51;;;;;;;0.45;0.30;;;;;;;28.11;38.77;96121.88;5016200;28;20032;-59
2021/08/08 03:08:16;;;;;;;1.17;0.40;;;;;;;-148.56;100.00;61375.16;5051862;28;20028;-59
2021/08/08 03:11:49;;;;;;;1.13;0.50;;;;;;;-148.56;100.00;61375.16;5050858;28;20140;-59
2021/08/08 03:15:13;;;;;;;0.85;0.50;;;;;;;-148.56;100.00;61375.16;5048580;28;20051;-56
2021/08/08 03:18:37;;;;;;;4.78;0.50;;;;;;;-148.56;100.00;61375.16;5048649;28;20111;-59
2021/08/08 03:21:54;;;;;;;7.28;1.80;;;;;;;-148.56;100.00;61375.16;5036431;28;20032;-57
2021/08/08 03:25:17;;;;;;;1.33;0.40;;;;;;;-148.56;100.00;61375.16;5051879;28;20032;-60
2021/08/08 03:28:41;;;;;;;1.90;0.60;;;;;;;-148.56;100.00;61375.16;5048543;28;20943;-59
2021/08/08 03:32:05;;;;;;;1.25;0.45;;;;;;;-148.56;100.00;61375.16;5044345;28;20059;-57
2021/08/08 03:35:29;;;;;;;1.95;0.40;;;;;;;-148.56;100.00;61375.16;5048542;28;20065;-59
2021/08/08 03:38:53;;;;;;;3.22;0.55;;;;;;;-148.56;100.00;61375.16;5054168;28;20441;-59
2021/08/08 03:42:17;;;;;;;2.28;0.68;;;;;;;-148.56;100.00;61375.16;5055310;28;20036;-59
2021/08/08 03:45:41;;;;;;;3.15;0.60;;;;;;;-148.56;100.00;61375.16;5038956;28;20032;-57
2021/08/08 03:49:05;;;;;;;1.38;0.57;;;;;;;-148.56;100.00;61375.16;5047475;28;20060;-56
2021/08/08 03:52:29;;;;;;;1.77;0.65;;;;;;;-148.56;100.00;61375.16;5051352;28;20035;-58
2021/08/08 03:55:52;;;;;;;1.38;0.60;;;;;;;-148.56;100.00;61375.16;5046313;28;20040;-59
2021/08/08 03:59:16;;;;;;;1.58;0.40;;;;;;;-148.56;100.00;61375.16;5047119;28;20025;-58
2021/08/08 04:02:40;;;;;;;1.48;0.55;;;;;;;-148.56;100.00;61375.16;5052984;28;20158;-57
2021/08/08 04:06:04;;;;;;;1.83;0.50;;;;;;;-148.56;100.00;61375.16;5051565;28;20028;-57
2021/08/08 04:09:28;;;;;;;1.85;0.40;;;;;;;-148.56;100.00;61375.16;5048029;28;20676;-57
2021/08/08 04:12:52;;;;;;;0.57;0.30;;;;;;;-148.56;100.00;61375.16;5032330;28;20037;-58
2021/08/08 04:16:16;;;;;;;2.22;0.50;;;;;;;-148.56;100.00;61375.16;5051641;28;20081;-58
2021/08/08 04:19:39;;;;;;;0.52;0.22;;;;;;;-148.56;100.00;61375.16;5050231;28;20031;-60
2021/08/08 04:23:03;;;;;;;2.30;0.43;;;;;;;-148.56;100.00;61375.16;5043078;28;20036;-56
2021/08/08 04:25:57;;;;;;;1.95;0.35;;;;;;;28.11;38.77;96121.88;5051241;28;20032;-58
2021/08/08 04:29:18;;;;;;;1.88;0.50;;;;;;;-148.56;32.85;61375.16;5045007;28;20032;-57
2021/08/08 04:31:43;;;;;;;1.63;0.43;;;;;;;28.10;38.56;96215.00;5050816;28;20024;-57
2021/08/08 04:34:09;;;;;;;2.78;0.50;;;;;;;28.08;38.65;96216.94;5031019;28;20033;-57
2021/08/08 04:36:34;;;;;;;0.35;0.30;;;;;;;28.08;38.55;96216.06;5052865;28;20488;-59
2021/08/08 04:38:59;;;;;;;1.52;0.40;;;;;;;28.07;38.68;96212.59;5052548;28;20021;-58
2021/08/08 04:41:25;;;;;;;4.25;0.73;;;;;;;28.07;38.65;96215.22;5046279;28;20055;-58
2021/08/08 04:43:50;;;;;;;3.25;0.80;;;;;;;28.09;38.59;96230.91;5051626;28;20040;-59
2021/08/08 04:47:14;;;;;;;2.17;0.60;;;;;;;-148.56;100.00;61375.16;5055776;28;20032;-56
2021/08/08 04:50:38;;;;;;;4.30;0.32;;;;;;;-148.56;100.00;61375.16;5054917;28;20139;-58
2021/08/08 04:53:39;;;;;;;2.92;0.40;;;;;;;-148.56;100.00;61375.16;5054318;28;20551;-58
2021/08/08 04:57:03;;;;;;;4.50;0.40;;;;;;;-148.56;100.00;61375.16;5057155;28;20437;-58
2021/08/08 05:00:27;;;;;;;0.30;0.20;;;;;;;-148.56;100.00;61375.16;5029617;28;20043;-57
2021/08/08 05:03:50;;;;;;;6.32;0.57;;;;;;;-148.56;100.00;61375.16;5058505;28;20413;-58
2021/08/08 05:06:52;;;;;;;8.07;0.70;;;;;;;28.09;38.59;96230.91;5056996;28;20515;-59
2021/08/08 05:10:16;;;;;;;0.98;0.38;;;;;;;-148.56;100.00;61375.16;5046605;28;20066;-59
2021/08/08 05:13:40;;;;;;;1.80;0.40;;;;;;;-148.56;100.00;61375.16;5045715;28;20143;-56
2021/08/08 05:17:03;;;;;;;1.60;0.40;;;;;;;-148.56;100.00;61375.16;5044490;28;20039;-56
2021/08/08 05:20:12;;;;;;;0.77;0.30;;;;;;;-148.56;100.00;61375.16;5047695;28;20038;-59
2021/08/08 05:23:03;;;;;;;1.77;0.50;;;;;;;-148.56;38.59;113866.56;5039790;28;20036;-56
2021/08/08 05:26:27;;;;;;;0.77;0.30;;;;;;;-148.56;100.00;61375.16;5054889;28;20488;-58
2021/08/08 05:29:50;;;;;;;1.25;0.45;;;;;;;-148.56;100.00;61375.16;5052277;28;20072;-58
2021/08/08 05:32:16;;;;;;;0.57;0.30;;;;;;;28.11;38.49;96248.28;5051315;28;20103;-56
2021/08/08 05:34:41;;;;;;;4.03;0.52;;;;;;;28.08;38.62;96259.06;5033490;28;20479;-59
2021/08/08 05:37:07;;;;;;;2.25;0.32;;;;;;;28.07;38.70;96260.00;5039334;28;20032;-57
2021/08/08 05:39:32;;;;;;;1.10;0.43;;;;;;;28.07;38.44;96261.81;5052692;28;20040;-58
2021/08/08 05:41:57;;;;;;;2.13;0.43;;;;;;;28.06;38.58;96263.59;5050898;28;20036;-58
2021/08/08 05:44:23;;;;;;;0.63;0.35;;;;;;;28.06;38.87;96258.31;5054166;28;20025;-60
2021/08/08 05:46:48;;;;;;;1.90;0.50;;;;;;;28.08;38.75;96266.13;5036925;28;20067;-56
2021/08/08 05:49:14;;;;;;;1.00;0.57;;;;;;;28.07;38.70;96259.19;5053817;28;20048;-58
2021/08/08 05:51:42;;;;;;;0.73;0.40;;;;;;;28.06;38.87;96260.97;5055376;28;20028;-57
2021/08/08 05:54:08;;;;;;;1.98;0.40;;;;;;;28.05;38.58;96259.28;5054473;28;20028;-59
2021/08/08 05:56:33;;;;;;;0.50;0.32;;;;;;;28.07;38.65;96267.09;5029513;28;20071;-57
2021/08/08 05:59:30;;;;;;;2.42;0.38;;;;;;;-148.56;38.65;70431.72;5048910;28;20032;-57
2021/08/08 06:02:54;;;;;;;3.75;0.75;;;;;;;-148.56;100.00;61375.16;5049828;28;20326;-59
2021/08/08 06:06:18;;;;;;;1.65;0.30;;;;;;;-148.56;100.00;61375.16;5043844;28;20517;-58
2021/08/08 06:09:41;;;;;;;0.82;0.32;;;;;;;-148.56;100.00;61375.16;5053826;28;20043;-61
2021/08/08 06:13:05;;;;;;;0.43;0.20;;;;;;;-148.56;100.00;61375.16;5051531;28;20028;-58
2021/08/08 06:16:29;;;;;;;1.30;0.40;;;;;;;-148.56;100.00;61375.16;5047745;28;20395;-57
2021/08/08 06:18:55;;;;;;;1.08;0.43;;;;;;;28.14;38.39;96269.16;5052892;28;20024;-57
2021/08/08 06:21:20;;;;;;;1.98;0.70;;;;;;;28.10;38.74;96267.69;5050957;28;20123;-57
2021/08/08 06:23:45;;;;;;;7.22;0.77;;;;;;;28.11;38.50;96276.44;5056338;28;20582;-58
2021/08/08 06:26:11;;;;;;;2.05;0.55;;;;;;;28.09;38.78;96271.28;5031628;28;20067;-57
2021/08/08 06:28:36;;;;;;;1.73;0.63;;;;;;;28.09;38.69;96275.69;5035936;28;20055;-58
2021/08/08 06:31:01;;;;;;;1.90;0.40;;;;;;;28.08;38.60;96268.75;5055599;28;20025;-57
2021/08/08 06:33:27;;;;;;;0.68;0.30;;;;;;;28.08;38.63;96266.97;5047340;28;20035;-59
2021/08/08 06:35:53;;;;;;;0.70;0.43;;;;;;;28.08;38.65;96258.22;5053157;28;20032;-57
2021/08/08 06:38:19;;;;;;;2.78;0.60;;;;;;;28.07;38.76;96265.25;5053652;28;20470;-58
2021/08/08 06:40:44;;;;;;;2.17;0.40;;;;;;;28.09;38.56;96273.06;5034226;28;20067;-58
2021/08/08 06:43:10;;;;;;;0.43;0.30;;;;;;;28.08;38.70;96268.75;5049212;28;20028;-58
2021/08/08 06:45:35;;;;;;;1.48;0.50;;;;;;;28.09;38.71;96271.28;5058291;28;20028;-57
2021/08/08 06:48:01;;;;;;;0.77;0.50;;;;;;;28.09;38.56;96275.69;5048903;28;20563;-57
2021/08/08 06:50:27;;;;;;;0.50;0.35;;;;;;;28.09;38.56;96273.06;5032939;28;20036;-57
2021/08/08 06:52:52;;;;;;;1.48;0.55;;;;;;;28.09;38.81;96280.97;5038004;28;21051;-57
2021/08/08 06:55:18;;;;;;;5.50;0.73;;;;;;;28.09;38.76;96281.81;5054668;28;20062;-58
2021/08/08 06:57:43;;;;;;;1.58;0.30;;;;;;;28.09;38.75;96276.56;5043985;28;20066;-57
2021/08/08 07:00:09;;;;;;;1.77;0.45;;;;;;;28.10;38.71;96287.94;5049902;28;20024;-58
2021/08/08 07:02:34;;;;;;;1.02;0.40;;;;;;;28.09;38.57;96281.81;5048940;28;20518;-56
2021/08/08 07:05:01;;;;;;;0.43;0.28;;;;;;;28.10;38.70;96288.75;5049217;28;20043;-58
2021/08/08 07:07:26;;;;;;;6.07;0.52;;;;;;;28.11;38.80;96279.09;5044629;28;20496;-56
2021/08/08 07:09:52;;;;;;;9.25;1.00;;;;;;;28.11;38.79;96284.34;5039761;28;20228;-58
2021/08/08 07:12:17;;;;;;;8.73;0.98;;;;;;;28.11;37.84;96284.34;5047302;28;20036;-60
2021/08/08 07:14:43;;;;;;;9.77;0.93;;;;;;;28.09;37.65;96295.00;5048444;28;20312;-57
2021/08/08 07:17:08;;;;;;;7.93;0.80;;;;;;;28.05;37.20;96290.88;5030946;28;20024;-57
2021/08/08 07:19:33;;;;;;;5.88;1.00;;;;;;;28.02;36.94;96296.38;5026864;28;20471;-57
2021/08/08 07:21:59;;;;;;;4.88;0.77;;;;;;;27.99;36.80;96291.34;5030414;28;20047;-59
2021/08/08 07:24:24;;;;;;;4.70;1.00;;;;;;;27.94;36.77;96293.41;5052202;28;20024;-58
2021/08/08 07:26:50;;;;;;;4.28;1.20;;;;;;;27.89;36.63;96294.59;5052179;28;20066;-58
2021/08/08 07:29:15;;;;;;;4.00;0.73;;;;;;;27.87;36.65;96296.50;5031748;28;20114;-58
2021/08/08 07:31:40;;;;;;;2.78;1.08;;;;;;;27.82;36.66;96297.75;5046910;28;20534;-59
2021/08/08 07:34:06;;;;;;;2.08;0.90;;;;;;;27.80;36.73;96300.50;5030678;28;20621;-59
2021/08/08 07:36:31;;;;;;;2.70;0.93;;;;;;;27.76;36.60;96304.28;5040659;28;20052;-59
2021/08/08 07:38:57;;;;;;;6.03;0.93;;;;;;;27.73;36.40;96301.88;5047666;28;20070;-59
2021/08/08 07:41:22;;;;;;;2.47;0.82;;;;;;;27.74;36.67;96306.19;5047811;28;20450;-59
2021/08/08 07:43:48;;;;;;;3.00;1.00;;;;;;;27.73;36.14;96307.16;5046658;28;20036;-58
2021/08/08 07:46:13;;;;;;;5.45;1.45;;;;;;;27.73;36.04;96302.69;5046793;28;20089;-58
2021/08/08 07:49:07;;;;;;;5.10;1.00;;;;;;;-148.56;100.00;61375.16;5044555;28;20115;-58
2021/08/08 07:51:32;;;;;;;3.05;0.93;;;;;;;27.73;35.70;96302.69;5046783;28;20552;-57
2021/08/08 07:53:58;;;;;;;1.88;0.70;;;;;;;27.73;35.32;96307.97;5040806;28;20224;-56
2021/08/08 07:56:23;;;;;;;3.10;0.98;;;;;;;27.74;35.32;96306.19;5026484;28;20032;-61
2021/08/08 07:58:48;;;;;;;2.00;0.88;;;;;;;27.73;34.96;96317.69;5045362;28;20028;-57
2021/08/08 08:01:14;;;;;;;4.72;1.13;;;;;;;27.73;34.88;96320.31;5046908;28;20644;-58
2021/08/08 08:03:39;;;;;;;3.90;0.98;;;;;;;27.71;34.88;96316.94;5046820;28;20024;-57
2021/08/08 08:06:05;;;;;;;2.53;1.15;;;;;;;27.68;34.80;96314.53;5047464;28;20133;-57
2021/08/08 08:08:30;;;;;;;6.80;1.08;;;;;;;27.63;34.67;96320.09;5026318;28;20100;-59
2021/08/08 08:11:06;;;;;;;1.70;0.90;;;;;;;-148.56;100.00;61375.16;5045800;28;20253;-60
2021/08/08 08:14:17;;;;;;;5.10;1.10;;;;;;;-148.56;100.00;61375.16;5044022;28;20238;-59
2021/08/08 08:17:05;;;;;;;5.00;0.95;;;;;;;-148.56;100.00;61375.16;5045650;28;20109;-59
2021/08/08 08:20:29;;;;;;;6.10;1.27;;;;;;;-148.56;100.00;61375.16;5046590;28;20357;-56
2021/08/08 08:23:42;;;;;;;4.13;1.17;;;;;;;-148.56;34.67;70523.22;5049894;28;20028;-56
2021/08/08 08:26:08;;;;;;;3.30;0.80;;;;;;;27.29;34.39;96320.56;5049955;28;20040;-59
2021/08/08 08:28:33;;;;;;;5.30;1.10;;;;;;;27.24;34.13;96315.59;5050580;28;20036;-57
2021/08/08 08:30:58;;;;;;;5.07;0.90;;;;;;;27.19;33.87;96324.75;5050331;28;20032;-58
2021/08/08 08:33:25;;;;;;;5.00;1.10;;;;;;;27.15;33.79;96333.78;5052046;28;20032;-58
2021/08/08 08:35:50;;;;;;;2.75;0.80;;;;;;;27.11;33.53;96333.97;5029757;28;20036;-58
2021/08/08 08:38:16;;;;;;;5.75;1.13;;;;;;;27.07;33.76;96342.16;5053265;28;20024;-59
2021/08/08 08:40:42;;;;;;;2.78;1.15;;;;;;;27.03;33.82;96344.16;5038219;28;20045;-59
2021/08/08 08:44:06;;;;;;;3.42;1.38;;;;;;;-148.56;100.00;61375.16;5038608;28;20044;-57
2021/08/08 08:47:29;;;;;;;5.68;1.20;;;;;;;-148.56;100.00;61375.16;5040222;28;20139;-60
2021/08/08 08:50:53;;;;;;;3.42;1.10;;;;;;;-148.56;100.00;61375.16;5031244;28;20513;-58
2021/08/08 08:54:17;;;;;;;4.22;1.10;;;;;;;-148.56;100.00;61375.16;5027330;28;20064;-60
2021/08/08 08:57:41;;;;;;;3.42;1.20;;;;;;;-148.56;100.00;61375.16;5024413;28;20045;-57
2021/08/08 09:01:06;;;;;;;6.03;0.88;;;;;;;-148.56;100.00;61375.16;5034530;28;20519;-58
2021/08/08 09:04:31;;;;;;;4.03;1.35;;;;;;;-148.56;100.00;61375.16;5019141;28;20033;-57
2021/08/08 09:07:02;;;;;;;5.53;1.17;;;;;;;27.03;33.82;96344.16;5029247;28;20146;-60
2021/08/08 09:10:25;;;;;;;3.53;1.10;;;;;;;-148.56;100.00;61375.16;5030644;28;20523;-57
2021/08/08 09:13:57;;;;;;;4.22;0.90;;;;;;;-148.56;100.00;61375.16;5021783;28;20321;-56
2021/08/08 09:16:40;;;;;;;4.82;1.27;;;;;;;27.03;33.82;96344.16;5017580;28;20024;-55
2021/08/08 09:20:08;;;;;;;2.80;1.40;;;;;;;-148.56;100.00;61375.16;5008279;28;20098;-57
2021/08/08 09:23:35;;;;;;;2.40;1.20;;;;;;;-148.56;100.00;61375.16;5012706;28;20031;-57
2021/08/08 09:27:08;;;;;;;4.00;1.10;;;;;;;-148.56;100.00;61375.16;5048675;28;20326;-59
2021/08/08 09:30:35;;;;;;;4.57;1.00;;;;;;;-148.56;100.00;61375.16;5046820;28;20021;-58
2021/08/08 09:33:42;;;;;;;6.88;1.55;;;;;;;27.03;33.82;96344.16;5032147;28;20048;-55
2021/08/08 09:37:07;;;;;;;4.18;1.17;;;;;;;-148.56;nan;61375.16;5014536;28;20025;-57
2021/08/08 09:40:36;;;;;;;5.30;0.90;;;;;;;-148.56;100.00;61375.16;5034697;28;20017;-58
2021/08/08 09:44:07;;;;;;;4.80;1.30;;;;;;;-148.56;100.00;61375.16;5036701;28;20608;-56
2021/08/08 09:47:37;;;;;;;8.30;1.58;;;;;;;-148.56;100.00;61375.16;5033253;28;20025;-58
2021/08/08 09:50:05;;;;;;;18.33;1.73;;;;;;;27.12;33.97;96351.44;5040641;28;20144;-57
2021/08/08 09:52:34;;;;;;;15.18;1.77;;;;;;;27.13;34.21;96347.88;5017244;28;20024;-57
2021/08/08 09:54:59;;;;;;;6.13;1.85;;;;;;;27.15;34.27;96354.84;5013561;28;20024;-56
2021/08/08 09:58:24;;;;;;;7.97;2.13;;;;;;;-148.56;100.00;61375.16;5038636;28;20040;-58
2021/08/08 10:01:48;;;;;;;9.85;1.85;;;;;;;-148.56;100.00;61375.16;5036586;28;20090;-58
2021/08/08 10:05:12;;;;;;;7.22;1.50;;;;;;;-148.56;100.00;61375.16;5039970;28;20095;-57
2021/08/08 10:08:36;;;;;;;7.30;1.50;;;;;;;-148.56;100.00;61375.16;5035063;28;20108;-57
2021/08/08 10:12:03;;;;;;;6.50;1.90;;;;;;;-148.56;100.00;61375.16;5022937;28;20033;-58
2021/08/08 10:15:26;;;;;;;5.50;2.08;;;;;;;-148.56;100.00;61375.16;5009583;28;20071;-58
2021/08/08 10:18:54;;;;;;;4.90;1.52;;;;;;;-148.56;100.00;61375.16;5005901;28;20397;-58
2021/08/08 10:22:18;;;;;;;11.13;1.80;;;;;;;-148.56;100.00;61375.16;5027276;28;20055;-58
2021/08/08 10:25:46;;;;;;;4.78;1.60;;;;;;;-148.56;100.00;61375.16;5036086;28;20029;-57
2021/08/08 10:29:07;;;;;;;4.95;1.55;;;;;;;-148.56;100.00;61375.16;5011082;28;20111;-57
2021/08/08 10:32:31;;;;;;;9.85;1.70;;;;;;;-148.56;100.00;61375.16;5038647;28;20024;-59
2021/08/08 10:35:55;;;;;;;3.03;1.33;;;;;;;-148.56;100.00;61375.16;5020689;28;20033;-59
2021/08/08 10:39:19;;;;;;;5.55;1.63;;;;;;;-148.56;100.00;61375.16;5035189;28;20037;-58
2021/08/08 10:42:53;;;;;;;4.78;1.65;;;;;;;-148.56;100.00;61375.16;5027195;28;20103;-56
2021/08/08 10:46:23;;;;;;;6.00;1.50;;;;;;;-148.56;100.00;61375.16;5039428;28;20032;-56
2021/08/08 10:48:50;;;;;;;4.40;1.40;;;;;;;27.15;34.27;96354.84;5034457;28;20049;-58
2021/08/08 10:52:17;;;;;;;4.68;2.03;;;;;;;-148.56;100.00;61375.16;5037120;28;20406;-58
2021/08/08 10:55:45;;;;;;;3.40;1.15;;;;;;;-148.56;100.00;61375.16;5035858;28;20082;-58
2021/08/08 10:59:26;;;;;;;3.40;1.33;;;;;;;-148.56;100.00;61375.16;5036305;28;20389;-58
2021/08/08 11:03:23;;;;;;;2.80;1.10;;;;;;;-148.56;100.00;61375.16;5019370;28;20393;-58
2021/08/08 11:06:47;;;;;;;2.50;1.23;;;;;;;-148.56;100.00;61375.16;5024418;28;20056;-58
2021/08/08 11:09:13;;;;;;;3.42;1.48;;;;;;;27.70;35.61;96354.72;5012555;28;20029;-59
2021/08/08 11:12:38;;;;;;;2.58;1.13;;;;;;;-148.56;100.00;61375.16;5019218;28;20075;-56
2021/08/08 11:16:11;;;;;;;3.03;1.20;;;;;;;-148.56;100.00;61375.16;5028140;28;20505;-59
2021/08/08 11:19:41;;;;;;;1.95;1.15;;;;;;;-148.56;100.00;61375.16;5036989;28;20052;-60
2021/08/08 11:23:12;;;;;;;2.80;1.17;;;;;;;-148.56;100.00;61375.16;5037345;28;20595;-59
2021/08/08 11:25:56;;;;;;;2.42;1.10;;;;;;;27.70;100.00;61375.44;5019727;28;20028;-59
2021/08/08 11:28:30;;;;;;;1.85;1.00;;;;;;;27.70;69.66;96354.72;5020840;28;20029;-59
2021/08/08 11:31:48;;;;;;;4.72;1.20;;;;;;;-148.56;100.00;61375.16;5032725;28;20493;-57
2021/08/08 11:34:23;;;;;;;3.78;1.23;;;;;;;27.70;35.61;96354.72;5030931;28;20036;-56
2021/08/08 11:37:47;;;;;;;3.05;1.30;;;;;;;-148.56;100.00;61375.16;5036292;28;20320;-57
2021/08/08 11:41:20;;;;;;;1.95;1.10;;;;;;;-148.56;100.00;61375.16;5018097;28;20563;-60
2021/08/08 11:44:08;;;;;;;2.00;1.05;;;;;;;27.70;35.61;96354.72;5014851;28;20719;-59
2021/08/08 11:46:41;;;;;;;2.45;1.08;;;;;;;27.70;35.61;96354.72;5031936;28;20033;-60
2021/08/08 11:50:12;;;;;;;2.85;1.10;;;;;;;-148.56;100.00;61375.16;5015802;28;20041;-59
2021/08/08 11:53:37;;;;;;;7.47;1.45;;;;;;;-148.56;100.00;61375.16;5036260;28;20028;-56
2021/08/08 11:56:48;;;;;;;1.23;0.88;;;;;;;27.70;35.61;96354.72;5039261;28;20029;-59
2021/08/08 12:00:12;;;;;;;2.40;1.08;;;;;;;-148.56;100.00;61375.16;5041052;28;20064;-59
2021/08/08 12:03:36;;;;;;;2.55;1.08;;;;;;;-148.56;100.00;61375.16;5011004;28;20969;-59
2021/08/08 12:07:00;;;;;;;2.97;1.10;;;;;;;-148.56;100.00;61375.16;5041164;28;20071;-56
2021/08/08 12:10:26;;;;;;;4.28;1.10;;;;;;;-148.56;100.00;61375.16;5042194;28;20417;-59
2021/08/08 12:13:59;;;;;;;1.55;0.85;;;;;;;-148.56;100.00;61375.16;5041666;28;20032;-60
2021/08/08 12:17:23;;;;;;;1.27;0.73;;;;;;;-148.56;100.00;61375.16;5040280;28;20617;-58
2021/08/08 12:20:48;;;;;;;2.50;1.02;;;;;;;-148.56;100.00;61375.16;5032161;28;20040;-57
2021/08/08 12:23:19;;;;;;;1.73;0.90;;;;;;;-148.56;100.00;61375.16;5030158;28;20327;-57
2021/08/08 12:25:45;;;;;;;2.80;1.20;;;;;;;27.87;35.99;96422.88;5017744;28;20035;-58
2021/08/08 12:28:21;;;;;;;1.55;0.70;;;;;;;27.88;36.15;96437.72;5021825;28;20502;-57
2021/08/08 12:31:09;;;;;;;4.55;0.95;;;;;;;27.88;36.15;96437.72;5052679;28;20069;-59
2021/08/08 12:33:34;;;;;;;2.40;1.02;;;;;;;27.89;35.65;96442.03;5029451;28;20408;-59
2021/08/08 12:37:07;;;;;;;2.28;0.95;;;;;;;-148.56;100.00;61375.16;5054796;28;20760;-57
2021/08/08 12:40:39;;;;;;;3.00;1.45;;;;;;;-148.56;100.00;61375.16;5051739;28;20111;-61
2021/08/08 12:44:03;;;;;;;1.98;1.30;;;;;;;-148.56;100.00;61375.16;5035458;28;20656;-60
2021/08/08 12:47:35;;;;;;;5.05;1.63;;;;;;;-148.56;100.00;61375.16;5043706;28;20359;-58
2021/08/08 12:50:59;;;;;;;3.72;1.50;;;;;;;-148.56;100.00;61375.16;5036268;28;20082;-60
2021/08/08 12:53:44;;;;;;;5.43;1.58;;;;;;;27.89;100.00;154790.72;5051215;28;20232;-59
2021/08/08 12:57:08;;;;;;;2.95;1.38;;;;;;;-148.56;100.00;61375.16;5050945;28;20043;-59
2021/08/08 12:59:54;;;;;;;5.55;1.58;;;;;;;27.89;35.65;96442.03;5050855;28;20439;-57
2021/08/08 13:02:19;;;;;;;1.90;1.00;;;;;;;27.91;32.06;96439.31;5054014;28;20103;-58
2021/08/08 13:04:45;;;;;;;2.30;1.30;;;;;;;27.83;32.01;96447.72;5055907;28;20047;-59
2021/08/08 13:07:10;;;;;;;3.80;1.45;;;;;;;27.82;32.12;96432.03;5049420;28;20020;-58
2021/08/08 13:09:36;;;;;;;3.47;1.40;;;;;;;27.81;32.18;96436.47;5055630;28;20094;-58
2021/08/08 13:12:01;;;;;;;3.65;1.00;;;;;;;27.80;32.18;96437.41;5050036;28;20051;-58
2021/08/08 13:14:26;;;;;;;3.35;1.30;;;;;;;27.79;32.09;96443.63;5034395;28;20040;-59
2021/08/08 13:16:52;;;;;;;2.95;1.17;;;;;;;27.77;31.93;96451.63;5053438;28;20035;-59
2021/08/08 13:19:17;;;;;;;5.88;2.08;;;;;;;27.76;32.02;96464.88;5050694;28;20024;-59
2021/08/08 13:21:43;;;;;;;17.17;7.30;;;;;;;27.78;32.17;96473.53;5054747;28;20451;-57
2021/08/08 13:24:08;;;;;;;25.70;13.20;;;;;;;27.79;32.35;96480.47;5052321;28;20311;-59
2021/08/08 13:26:33;;;;;;;48.55;26.13;;;;;;;27.78;32.77;96489.34;5053939;28;20439;-58
2021/08/08 13:28:59;;;;;;;87.78;45.65;;;;;;;27.77;32.98;96487.66;5051598;28;20036;-58
2021/08/08 13:31:24;;;;;;;76.10;44.65;;;;;;;27.78;33.31;96478.81;5053667;28;20032;-59
2021/08/08 13:33:50;;;;;;;74.18;42.70;;;;;;;27.76;33.66;96478.91;5053424;28;20037;-59
2021/08/08 13:36:15;;;;;;;65.32;36.95;;;;;;;27.76;33.80;96483.31;5056376;28;20503;-59
2021/08/08 13:38:40;;;;;;;49.03;28.25;;;;;;;27.75;33.81;96473.72;5049484;28;20032;-59
2021/08/08 13:41:06;;;;;;;44.35;26.65;;;;;;;27.72;33.63;96480.03;5053465;28;20136;-59
2021/08/08 13:43:32;;;;;;;43.58;24.33;;;;;;;27.73;33.66;96486.16;5051826;28;20732;-59
2021/08/08 13:45:58;;;;;;;45.63;25.00;;;;;;;27.73;33.43;96478.28;5051019;28;20480;-56
2021/08/08 13:48:23;;;;;;;31.13;19.35;;;;;;;27.68;32.97;96472.47;5054219;28;20435;-58
2021/08/08 13:50:48;;;;;;;26.20;16.00;;;;;;;27.69;32.74;96476.78;5037753;28;20044;-57